sensor_id;sensor_type;location;lat;lon;timestamp;P1;durP1;ratioP1;P2;durP2;ratioP2
54388;SDS011;40975;50.390;8.640;2022-08-19T00:01:21;13.18;;;9.77;;
54388;SDS011;40975;50.390;8.640;2022-08-19T00:03:46;16.80;;;10.18;;
54388;SDS011;40975;50.390;8.640;2022-08-19T00:06:13;11.48;;;9.40;;
54388;SDS011;40975;50.390;8.640;2022-08-19T00:08:38;12.88;;;9.85;;
54388;SDS011;40975;50.390;8.640;2022-08-19T00:11:04;11.48;;;9.18;;
54388;SDS011;40975;50.390;8.640;2022-08-19T00:13:30;16.48;;;9.40;;
54388;SDS011;40975;50.390;8.640;2022-08-19T00:15:55;12.88;;;9.60;;
54388;SDS011;40975;50.390;8.640;2022-08-19T00:18:21;13.25;;;9.90;;
54388;SDS011;40975;50.390;8.640;2022-08-19T00:20:46;12.52;;;9.32;;
54388;SDS011;40975;50.390;8.640;2022-08-19T00:23:12;14.85;;;10.50;;
54388;SDS011;40975;50.390;8.640;2022-08-19T00:25:37;13.45;;;9.95;;
54388;SDS011;40975;50.390;8.640;2022-08-19T00:28:03;15.98;;;10.10;;
54388;SDS011;40975;50.390;8.640;2022-08-19T00:30:29;12.27;;;9.20;;
54388;SDS011;40975;50.390;8.640;2022-08-19T00:32:55;13.38;;;10.20;;
54388;SDS011;40975;50.390;8.640;2022-08-19T00:35:21;14.27;;;9.57;;
54388;SDS011;40975;50.390;8.640;2022-08-19T00:37:47;12.93;;;10.15;;
54388;SDS011;40975;50.390;8.640;2022-08-19T00:40:14;13.65;;;9.50;;
54388;SDS011;40975;50.390;8.640;2022-08-19T00:42:41;14.27;;;10.07;;
54388;SDS011;40975;50.390;8.640;2022-08-19T00:45:09;13.23;;;9.70;;
54388;SDS011;40975;50.390;8.640;2022-08-19T00:47:37;13.95;;;9.98;;
54388;SDS011;40975;50.390;8.640;2022-08-19T00:50:03;13.60;;;9.82;;
54388;SDS011;40975;50.390;8.640;2022-08-19T00:52:29;15.65;;;10.35;;
54388;SDS011;40975;50.390;8.640;2022-08-19T00:54:58;12.85;;;9.80;;
54388;SDS011;40975;50.390;8.640;2022-08-19T00:57:30;13.52;;;10.02;;
54388;SDS011;40975;50.390;8.640;2022-08-19T01:00:00;15.65;;;10.48;;
54388;SDS011;40975;50.390;8.640;2022-08-19T01:02:27;15.85;;;9.70;;
54388;SDS011;40975;50.390;8.640;2022-08-19T01:04:54;13.20;;;9.65;;
54388;SDS011;40975;50.390;8.640;2022-08-19T01:07:19;14.18;;;8.98;;
54388;SDS011;40975;50.390;8.640;2022-08-19T01:09:45;14.77;;;9.73;;
54388;SDS011;40975;50.390;8.640;2022-08-19T01:12:11;16.17;;;10.27;;
54388;SDS011;40975;50.390;8.640;2022-08-19T01:14:36;14.27;;;9.95;;
54388;SDS011;40975;50.390;8.640;2022-08-19T01:17:04;14.50;;;9.30;;
54388;SDS011;40975;50.390;8.640;2022-08-19T01:19:32;17.83;;;9.95;;
54388;SDS011;40975;50.390;8.640;2022-08-19T01:22:26;14.07;;;9.93;;
54388;SDS011;40975;50.390;8.640;2022-08-19T01:24:55;13.18;;;9.30;;
54388;SDS011;40975;50.390;8.640;2022-08-19T01:27:20;14.50;;;9.68;;
54388;SDS011;40975;50.390;8.640;2022-08-19T01:29:45;11.02;;;8.70;;
54388;SDS011;40975;50.390;8.640;2022-08-19T01:32:12;11.77;;;9.07;;
54388;SDS011;40975;50.390;8.640;2022-08-19T01:34:40;11.48;;;8.82;;
54388;SDS011;40975;50.390;8.640;2022-08-19T01:37:07;12.95;;;8.70;;
54388;SDS011;40975;50.390;8.640;2022-08-19T01:39:36;14.43;;;8.90;;
54388;SDS011;40975;50.390;8.640;2022-08-19T01:42:03;12.63;;;8.98;;
54388;SDS011;40975;50.390;8.640;2022-08-19T01:44:29;12.68;;;8.77;;
54388;SDS011;40975;50.390;8.640;2022-08-19T01:46:55;14.77;;;9.05;;
54388;SDS011;40975;50.390;8.640;2022-08-19T01:49:21;11.60;;;8.27;;
54388;SDS011;40975;50.390;8.640;2022-08-19T01:51:48;15.25;;;9.25;;
54388;SDS011;40975;50.390;8.640;2022-08-19T01:54:15;14.65;;;8.98;;
54388;SDS011;40975;50.390;8.640;2022-08-19T01:56:43;13.18;;;8.32;;
54388;SDS011;40975;50.390;8.640;2022-08-19T01:59:10;11.82;;;8.82;;
54388;SDS011;40975;50.390;8.640;2022-08-19T02:01:39;11.65;;;8.40;;
54388;SDS011;40975;50.390;8.640;2022-08-19T02:04:05;12.18;;;8.00;;
54388;SDS011;40975;50.390;8.640;2022-08-19T02:06:31;11.02;;;7.90;;
54388;SDS011;40975;50.390;8.640;2022-08-19T02:08:58;11.38;;;8.30;;
54388;SDS011;40975;50.390;8.640;2022-08-19T02:11:24;13.88;;;9.30;;
54388;SDS011;40975;50.390;8.640;2022-08-19T02:13:52;12.75;;;8.15;;
54388;SDS011;40975;50.390;8.640;2022-08-19T02:16:19;11.63;;;8.68;;
54388;SDS011;40975;50.390;8.640;2022-08-19T02:18:45;10.85;;;8.05;;
54388;SDS011;40975;50.390;8.640;2022-08-19T02:21:13;11.63;;;8.35;;
54388;SDS011;40975;50.390;8.640;2022-08-19T02:23:40;10.73;;;8.07;;
54388;SDS011;40975;50.390;8.640;2022-08-19T02:26:06;12.07;;;8.20;;
54388;SDS011;40975;50.390;8.640;2022-08-19T02:28:33;11.25;;;7.40;;
54388;SDS011;40975;50.390;8.640;2022-08-19T02:30:59;11.48;;;8.20;;
54388;SDS011;40975;50.390;8.640;2022-08-19T02:33:25;12.43;;;8.73;;
54388;SDS011;40975;50.390;8.640;2022-08-19T02:35:51;11.93;;;8.30;;
54388;SDS011;40975;50.390;8.640;2022-08-19T02:38:16;12.07;;;8.32;;
54388;SDS011;40975;50.390;8.640;2022-08-19T02:40:52;14.25;;;8.63;;
54388;SDS011;40975;50.390;8.640;2022-08-19T02:43:19;11.98;;;8.20;;
54388;SDS011;40975;50.390;8.640;2022-08-19T02:45:45;10.63;;;7.82;;
54388;SDS011;40975;50.390;8.640;2022-08-19T02:48:13;12.27;;;7.95;;
54388;SDS011;40975;50.390;8.640;2022-08-19T02:50:43;12.63;;;8.80;;
54388;SDS011;40975;50.390;8.640;2022-08-19T02:53:09;11.00;;;8.00;;
54388;SDS011;40975;50.390;8.640;2022-08-19T02:55:35;12.90;;;9.75;;
54388;SDS011;40975;50.390;8.640;2022-08-19T02:58:06;12.52;;;10.02;;
54388;SDS011;40975;50.390;8.640;2022-08-19T03:00:32;14.40;;;9.77;;
54388;SDS011;40975;50.390;8.640;2022-08-19T03:02:57;12.88;;;9.05;;
54388;SDS011;40975;50.390;8.640;2022-08-19T03:05:25;12.65;;;8.68;;
54388;SDS011;40975;50.390;8.640;2022-08-19T03:07:50;12.77;;;9.00;;
54388;SDS011;40975;50.390;8.640;2022-08-19T03:10:15;12.05;;;7.90;;
54388;SDS011;40975;50.390;8.640;2022-08-19T03:12:41;9.35;;;7.85;;
54388;SDS011;40975;50.390;8.640;2022-08-19T03:15:07;15.82;;;8.30;;
54388;SDS011;40975;50.390;8.640;2022-08-19T03:17:33;9.43;;;7.57;;
54388;SDS011;40975;50.390;8.640;2022-08-19T03:19:59;12.00;;;8.07;;
54388;SDS011;40975;50.390;8.640;2022-08-19T03:22:25;11.65;;;8.32;;
54388;SDS011;40975;50.390;8.640;2022-08-19T03:24:50;11.93;;;8.15;;
54388;SDS011;40975;50.390;8.640;2022-08-19T03:27:16;10.20;;;7.80;;
54388;SDS011;40975;50.390;8.640;2022-08-19T03:29:42;11.13;;;7.03;;
54388;SDS011;40975;50.390;8.640;2022-08-19T03:32:08;11.73;;;7.47;;
54388;SDS011;40975;50.390;8.640;2022-08-19T03:34:36;9.02;;;6.80;;
54388;SDS011;40975;50.390;8.640;2022-08-19T03:37:04;9.15;;;6.90;;
54388;SDS011;40975;50.390;8.640;2022-08-19T03:39:31;10.70;;;7.72;;
54388;SDS011;40975;50.390;8.640;2022-08-19T03:41:57;10.40;;;7.40;;
54388;SDS011;40975;50.390;8.640;2022-08-19T03:44:25;9.38;;;6.68;;
54388;SDS011;40975;50.390;8.640;2022-08-19T03:46:55;10.35;;;6.82;;
54388;SDS011;40975;50.390;8.640;2022-08-19T03:51:49;8.20;;;6.90;;
54388;SDS011;40975;50.390;8.640;2022-08-19T03:54:16;13.15;;;6.68;;
54388;SDS011;40975;50.390;8.640;2022-08-19T03:56:46;9.90;;;7.18;;
54388;SDS011;40975;50.390;8.640;2022-08-19T03:59:18;13.20;;;6.95;;
54388;SDS011;40975;50.390;8.640;2022-08-19T04:01:45;9.68;;;7.32;;
54388;SDS011;40975;50.390;8.640;2022-08-19T04:04:11;10.80;;;7.28;;
54388;SDS011;40975;50.390;8.640;2022-08-19T04:06:37;8.73;;;7.50;;
54388;SDS011;40975;50.390;8.640;2022-08-19T04:09:04;9.32;;;7.10;;
54388;SDS011;40975;50.390;8.640;2022-08-19T04:11:36;9.00;;;6.90;;
54388;SDS011;40975;50.390;8.640;2022-08-19T04:14:08;11.80;;;7.25;;
54388;SDS011;40975;50.390;8.640;2022-08-19T04:16:35;9.48;;;7.13;;
54388;SDS011;40975;50.390;8.640;2022-08-19T04:19:01;10.85;;;6.57;;
54388;SDS011;40975;50.390;8.640;2022-08-19T04:21:27;10.95;;;6.68;;
54388;SDS011;40975;50.390;8.640;2022-08-19T04:23:54;9.60;;;7.03;;
54388;SDS011;40975;50.390;8.640;2022-08-19T04:26:22;8.20;;;6.45;;
54388;SDS011;40975;50.390;8.640;2022-08-19T04:28:50;9.73;;;7.03;;
54388;SDS011;40975;50.390;8.640;2022-08-19T04:31:17;10.82;;;8.10;;
54388;SDS011;40975;50.390;8.640;2022-08-19T04:33:45;10.88;;;7.35;;
54388;SDS011;40975;50.390;8.640;2022-08-19T04:36:23;10.82;;;7.32;;
54388;SDS011;40975;50.390;8.640;2022-08-19T04:38:52;10.95;;;6.78;;
54388;SDS011;40975;50.390;8.640;2022-08-19T04:41:19;10.80;;;7.13;;
54388;SDS011;40975;50.390;8.640;2022-08-19T04:44:03;11.90;;;7.13;;
54388;SDS011;40975;50.390;8.640;2022-08-19T04:46:29;10.88;;;7.13;;
54388;SDS011;40975;50.390;8.640;2022-08-19T04:48:57;16.40;;;7.63;;
54388;SDS011;40975;50.390;8.640;2022-08-19T04:51:23;9.88;;;7.40;;
54388;SDS011;40975;50.390;8.640;2022-08-19T04:53:48;10.73;;;7.07;;
54388;SDS011;40975;50.390;8.640;2022-08-19T04:56:14;8.43;;;6.32;;
54388;SDS011;40975;50.390;8.640;2022-08-19T04:58:43;9.13;;;6.65;;
54388;SDS011;40975;50.390;8.640;2022-08-19T05:01:11;8.05;;;6.15;;
54388;SDS011;40975;50.390;8.640;2022-08-19T05:03:43;7.97;;;6.22;;
54388;SDS011;40975;50.390;8.640;2022-08-19T05:06:10;6.72;;;5.80;;
54388;SDS011;40975;50.390;8.640;2022-08-19T05:08:38;9.77;;;6.18;;
54388;SDS011;40975;50.390;8.640;2022-08-19T05:11:12;9.45;;;6.15;;
54388;SDS011;40975;50.390;8.640;2022-08-19T05:13:41;7.90;;;5.93;;
54388;SDS011;40975;50.390;8.640;2022-08-19T05:16:08;8.68;;;5.72;;
54388;SDS011;40975;50.390;8.640;2022-08-19T05:18:35;7.18;;;5.32;;
54388;SDS011;40975;50.390;8.640;2022-08-19T05:21:20;7.25;;;5.63;;
54388;SDS011;40975;50.390;8.640;2022-08-19T05:24:04;10.00;;;7.85;;
54388;SDS011;40975;50.390;8.640;2022-08-19T05:26:34;10.35;;;8.20;;
54388;SDS011;40975;50.390;8.640;2022-08-19T05:29:06;10.80;;;7.78;;
54388;SDS011;40975;50.390;8.640;2022-08-19T05:31:33;11.50;;;7.75;;
54388;SDS011;40975;50.390;8.640;2022-08-19T05:34:00;10.38;;;7.82;;
54388;SDS011;40975;50.390;8.640;2022-08-19T05:36:26;11.75;;;7.88;;
54388;SDS011;40975;50.390;8.640;2022-08-19T05:38:53;10.25;;;7.47;;
54388;SDS011;40975;50.390;8.640;2022-08-19T05:41:19;9.38;;;7.05;;
54388;SDS011;40975;50.390;8.640;2022-08-19T05:43:46;9.15;;;6.95;;
54388;SDS011;40975;50.390;8.640;2022-08-19T05:46:18;8.55;;;6.93;;
54388;SDS011;40975;50.390;8.640;2022-08-19T05:48:44;8.32;;;5.90;;
54388;SDS011;40975;50.390;8.640;2022-08-19T05:51:10;12.40;;;5.05;;
54388;SDS011;40975;50.390;8.640;2022-08-19T05:53:36;7.55;;;5.60;;
54388;SDS011;40975;50.390;8.640;2022-08-19T05:56:05;8.00;;;5.65;;
54388;SDS011;40975;50.390;8.640;2022-08-19T05:58:31;7.32;;;5.90;;
54388;SDS011;40975;50.390;8.640;2022-08-19T06:00:58;7.80;;;6.00;;
54388;SDS011;40975;50.390;8.640;2022-08-19T06:03:29;8.60;;;5.93;;
54388;SDS011;40975;50.390;8.640;2022-08-19T06:05:54;6.85;;;4.93;;
54388;SDS011;40975;50.390;8.640;2022-08-19T06:08:20;5.72;;;5.03;;
54388;SDS011;40975;50.390;8.640;2022-08-19T06:10:45;5.20;;;4.65;;
54388;SDS011;40975;50.390;8.640;2022-08-19T06:13:10;5.75;;;4.30;;
54388;SDS011;40975;50.390;8.640;2022-08-19T06:15:36;4.85;;;4.13;;
54388;SDS011;40975;50.390;8.640;2022-08-19T06:18:01;6.03;;;3.90;;
54388;SDS011;40975;50.390;8.640;2022-08-19T06:20:26;5.50;;;4.00;;
54388;SDS011;40975;50.390;8.640;2022-08-19T06:22:52;4.07;;;3.30;;
54388;SDS011;40975;50.390;8.640;2022-08-19T06:25:17;4.20;;;3.67;;
54388;SDS011;40975;50.390;8.640;2022-08-19T06:27:43;3.90;;;3.28;;
54388;SDS011;40975;50.390;8.640;2022-08-19T06:30:09;3.75;;;3.22;;
54388;SDS011;40975;50.390;8.640;2022-08-19T06:32:36;4.22;;;3.30;;
54388;SDS011;40975;50.390;8.640;2022-08-19T06:35:02;3.95;;;3.47;;
54388;SDS011;40975;50.390;8.640;2022-08-19T06:37:27;5.00;;;3.17;;
54388;SDS011;40975;50.390;8.640;2022-08-19T06:39:53;3.80;;;3.35;;
54388;SDS011;40975;50.390;8.640;2022-08-19T06:42:18;3.55;;;2.85;;
54388;SDS011;40975;50.390;8.640;2022-08-19T06:44:45;3.75;;;2.70;;
54388;SDS011;40975;50.390;8.640;2022-08-19T06:47:13;4.82;;;3.10;;
54388;SDS011;40975;50.390;8.640;2022-08-19T06:49:41;5.07;;;3.25;;
54388;SDS011;40975;50.390;8.640;2022-08-19T06:52:07;6.28;;;4.10;;
54388;SDS011;40975;50.390;8.640;2022-08-19T06:54:32;4.60;;;3.65;;
54388;SDS011;40975;50.390;8.640;2022-08-19T06:56:59;6.32;;;4.05;;
54388;SDS011;40975;50.390;8.640;2022-08-19T06:59:27;4.38;;;2.70;;
54388;SDS011;40975;50.390;8.640;2022-08-19T07:01:54;3.47;;;2.65;;
54388;SDS011;40975;50.390;8.640;2022-08-19T07:04:28;2.53;;;2.28;;
54388;SDS011;40975;50.390;8.640;2022-08-19T07:07:03;3.00;;;2.63;;
54388;SDS011;40975;50.390;8.640;2022-08-19T07:09:35;4.35;;;2.85;;
54388;SDS011;40975;50.390;8.640;2022-08-19T07:12:02;3.08;;;2.78;;
54388;SDS011;40975;50.390;8.640;2022-08-19T07:14:29;2.55;;;2.35;;
54388;SDS011;40975;50.390;8.640;2022-08-19T07:16:55;2.88;;;2.30;;
54388;SDS011;40975;50.390;8.640;2022-08-19T07:19:22;3.35;;;2.53;;
54388;SDS011;40975;50.390;8.640;2022-08-19T07:21:50;2.90;;;2.60;;
54388;SDS011;40975;50.390;8.640;2022-08-19T07:24:18;3.65;;;2.40;;
54388;SDS011;40975;50.390;8.640;2022-08-19T07:26:51;4.53;;;3.00;;
54388;SDS011;40975;50.390;8.640;2022-08-19T07:29:18;4.55;;;2.85;;
54388;SDS011;40975;50.390;8.640;2022-08-19T07:31:45;3.67;;;3.05;;
54388;SDS011;40975;50.390;8.640;2022-08-19T07:34:11;3.80;;;2.85;;
54388;SDS011;40975;50.390;8.640;2022-08-19T07:36:39;4.40;;;3.70;;
54388;SDS011;40975;50.390;8.640;2022-08-19T07:39:07;5.63;;;3.63;;
54388;SDS011;40975;50.390;8.640;2022-08-19T07:41:36;4.65;;;3.80;;
54388;SDS011;40975;50.390;8.640;2022-08-19T07:44:02;4.93;;;3.80;;
54388;SDS011;40975;50.390;8.640;2022-08-19T07:46:32;4.97;;;3.95;;
54388;SDS011;40975;50.390;8.640;2022-08-19T07:48:58;6.20;;;4.03;;
54388;SDS011;40975;50.390;8.640;2022-08-19T07:51:25;6.85;;;4.55;;
54388;SDS011;40975;50.390;8.640;2022-08-19T07:53:52;5.47;;;4.10;;
54388;SDS011;40975;50.390;8.640;2022-08-19T07:56:19;5.20;;;4.70;;
54388;SDS011;40975;50.390;8.640;2022-08-19T07:58:46;5.63;;;4.03;;
54388;SDS011;40975;50.390;8.640;2022-08-19T08:01:14;11.02;;;5.25;;
54388;SDS011;40975;50.390;8.640;2022-08-19T08:03:43;4.35;;;3.95;;
54388;SDS011;40975;50.390;8.640;2022-08-19T08:06:28;4.95;;;4.45;;
54388;SDS011;40975;50.390;8.640;2022-08-19T08:09:13;7.32;;;5.78;;
54388;SDS011;40975;50.390;8.640;2022-08-19T08:11:48;5.18;;;4.55;;
54388;SDS011;40975;50.390;8.640;2022-08-19T08:14:21;7.10;;;4.80;;
54388;SDS011;40975;50.390;8.640;2022-08-19T08:16:49;6.05;;;5.00;;
54388;SDS011;40975;50.390;8.640;2022-08-19T08:19:17;4.95;;;3.90;;
54388;SDS011;40975;50.390;8.640;2022-08-19T08:21:46;5.35;;;4.47;;
54388;SDS011;40975;50.390;8.640;2022-08-19T08:24:12;4.85;;;4.43;;
54388;SDS011;40975;50.390;8.640;2022-08-19T08:26:37;6.60;;;5.30;;
54388;SDS011;40975;50.390;8.640;2022-08-19T08:29:03;6.00;;;5.40;;
54388;SDS011;40975;50.390;8.640;2022-08-19T08:31:30;6.53;;;5.43;;
54388;SDS011;40975;50.390;8.640;2022-08-19T08:33:55;6.63;;;5.15;;
54388;SDS011;40975;50.390;8.640;2022-08-19T08:36:20;6.32;;;4.35;;
54388;SDS011;40975;50.390;8.640;2022-08-19T08:38:46;4.70;;;4.07;;
54388;SDS011;40975;50.390;8.640;2022-08-19T08:41:17;4.93;;;4.43;;
54388;SDS011;40975;50.390;8.640;2022-08-19T08:43:53;5.93;;;4.72;;
54388;SDS011;40975;50.390;8.640;2022-08-19T08:46:32;4.38;;;3.97;;
54388;SDS011;40975;50.390;8.640;2022-08-19T08:49:17;4.82;;;4.32;;
54388;SDS011;40975;50.390;8.640;2022-08-19T08:51:59;4.68;;;4.15;;
54388;SDS011;40975;50.390;8.640;2022-08-19T08:54:30;5.72;;;4.32;;
54388;SDS011;40975;50.390;8.640;2022-08-19T08:57:29;5.13;;;4.63;;
54388;SDS011;40975;50.390;8.640;2022-08-19T09:00:00;5.13;;;4.65;;
54388;SDS011;40975;50.390;8.640;2022-08-19T09:04:55;5.77;;;4.27;;
54388;SDS011;40975;50.390;8.640;2022-08-19T09:10:22;6.18;;;4.07;;
54388;SDS011;40975;50.390;8.640;2022-08-19T09:13:34;3.78;;;3.35;;
54388;SDS011;40975;50.390;8.640;2022-08-19T09:16:09;5.00;;;3.65;;
54388;SDS011;40975;50.390;8.640;2022-08-19T09:18:38;6.25;;;3.78;;
54388;SDS011;40975;50.390;8.640;2022-08-19T09:21:06;3.85;;;3.55;;
54388;SDS011;40975;50.390;8.640;2022-08-19T09:23:33;4.80;;;3.58;;
54388;SDS011;40975;50.390;8.640;2022-08-19T09:25:59;5.53;;;3.65;;
54388;SDS011;40975;50.390;8.640;2022-08-19T09:28:24;4.78;;;3.80;;
54388;SDS011;40975;50.390;8.640;2022-08-19T09:30:50;5.97;;;3.30;;
54388;SDS011;40975;50.390;8.640;2022-08-19T09:33:16;4.45;;;3.58;;
54388;SDS011;40975;50.390;8.640;2022-08-19T09:35:42;3.17;;;2.70;;
54388;SDS011;40975;50.390;8.640;2022-08-19T09:38:07;3.53;;;2.80;;
54388;SDS011;40975;50.390;8.640;2022-08-19T09:40:33;3.88;;;3.58;;
54388;SDS011;40975;50.390;8.640;2022-08-19T09:42:58;4.18;;;3.42;;
54388;SDS011;40975;50.390;8.640;2022-08-19T09:45:27;2.13;;;1.92;;
54388;SDS011;40975;50.390;8.640;2022-08-19T09:47:53;3.50;;;2.78;;
54388;SDS011;40975;50.390;8.640;2022-08-19T09:50:19;4.05;;;3.65;;
54388;SDS011;40975;50.390;8.640;2022-08-19T09:52:45;3.80;;;3.38;;
54388;SDS011;40975;50.390;8.640;2022-08-19T09:55:11;4.13;;;3.65;;
54388;SDS011;40975;50.390;8.640;2022-08-19T09:57:37;6.20;;;3.15;;
54388;SDS011;40975;50.390;8.640;2022-08-19T10:00:03;3.95;;;2.83;;
54388;SDS011;40975;50.390;8.640;2022-08-19T10:04:58;2.90;;;2.60;;
54388;SDS011;40975;50.390;8.640;2022-08-19T10:07:41;3.90;;;2.60;;
54388;SDS011;40975;50.390;8.640;2022-08-19T10:10:07;3.35;;;2.85;;
54388;SDS011;40975;50.390;8.640;2022-08-19T10:12:34;3.25;;;3.05;;
54388;SDS011;40975;50.390;8.640;2022-08-19T10:15:00;3.10;;;2.80;;
54388;SDS011;40975;50.390;8.640;2022-08-19T10:17:26;6.60;;;2.72;;
54388;SDS011;40975;50.390;8.640;2022-08-19T10:19:52;3.45;;;3.25;;
54388;SDS011;40975;50.390;8.640;2022-08-19T10:22:18;2.92;;;2.63;;
54388;SDS011;40975;50.390;8.640;2022-08-19T10:24:44;3.97;;;3.20;;
54388;SDS011;40975;50.390;8.640;2022-08-19T10:27:11;4.18;;;2.63;;
54388;SDS011;40975;50.390;8.640;2022-08-19T10:29:38;3.38;;;3.00;;
54388;SDS011;40975;50.390;8.640;2022-08-19T10:32:04;3.67;;;3.38;;
54388;SDS011;40975;50.390;8.640;2022-08-19T10:34:32;3.33;;;2.85;;
54388;SDS011;40975;50.390;8.640;2022-08-19T10:36:59;3.45;;;3.15;;
54388;SDS011;40975;50.390;8.640;2022-08-19T10:39:25;5.35;;;4.50;;
54388;SDS011;40975;50.390;8.640;2022-08-19T10:41:54;4.40;;;4.00;;
54388;SDS011;40975;50.390;8.640;2022-08-19T10:44:21;3.90;;;3.50;;
54388;SDS011;40975;50.390;8.640;2022-08-19T10:46:48;5.00;;;3.20;;
54388;SDS011;40975;50.390;8.640;2022-08-19T10:49:13;4.85;;;3.15;;
54388;SDS011;40975;50.390;8.640;2022-08-19T10:51:39;3.83;;;3.13;;
54388;SDS011;40975;50.390;8.640;2022-08-19T10:54:23;4.25;;;3.83;;
54388;SDS011;40975;50.390;8.640;2022-08-19T10:57:09;4.18;;;3.88;;
54388;SDS011;40975;50.390;8.640;2022-08-19T10:59:35;5.35;;;4.45;;
54388;SDS011;40975;50.390;8.640;2022-08-19T11:02:01;5.68;;;5.15;;
54388;SDS011;40975;50.390;8.640;2022-08-19T11:04:28;5.68;;;4.47;;
54388;SDS011;40975;50.390;8.640;2022-08-19T11:06:54;5.97;;;5.30;;
54388;SDS011;40975;50.390;8.640;2022-08-19T11:09:21;5.32;;;4.75;;
54388;SDS011;40975;50.390;8.640;2022-08-19T11:11:55;4.70;;;4.30;;
54388;SDS011;40975;50.390;8.640;2022-08-19T11:14:22;5.03;;;4.63;;
54388;SDS011;40975;50.390;8.640;2022-08-19T11:16:48;6.40;;;5.05;;
54388;SDS011;40975;50.390;8.640;2022-08-19T11:19:15;6.28;;;5.63;;
54388;SDS011;40975;50.390;8.640;2022-08-19T11:21:44;6.55;;;6.00;;
54388;SDS011;40975;50.390;8.640;2022-08-19T11:24:16;6.60;;;6.00;;
54388;SDS011;40975;50.390;8.640;2022-08-19T11:26:44;6.22;;;5.68;;
54388;SDS011;40975;50.390;8.640;2022-08-19T11:29:10;6.28;;;5.78;;
54388;SDS011;40975;50.390;8.640;2022-08-19T11:31:39;5.43;;;4.80;;
54388;SDS011;40975;50.390;8.640;2022-08-19T11:34:07;5.57;;;4.95;;
54388;SDS011;40975;50.390;8.640;2022-08-19T11:36:37;4.95;;;4.55;;
54388;SDS011;40975;50.390;8.640;2022-08-19T11:39:05;4.72;;;4.32;;
54388;SDS011;40975;50.390;8.640;2022-08-19T11:41:32;4.93;;;4.53;;
54388;SDS011;40975;50.390;8.640;2022-08-19T11:43:58;5.70;;;4.75;;
54388;SDS011;40975;50.390;8.640;2022-08-19T11:46:24;7.00;;;5.78;;
54388;SDS011;40975;50.390;8.640;2022-08-19T11:48:54;5.90;;;5.43;;
54388;SDS011;40975;50.390;8.640;2022-08-19T11:51:21;6.78;;;6.18;;
54388;SDS011;40975;50.390;8.640;2022-08-19T11:53:49;6.72;;;6.13;;
54388;SDS011;40975;50.390;8.640;2022-08-19T11:56:16;3.97;;;3.67;;
54388;SDS011;40975;50.390;8.640;2022-08-19T11:58:42;4.70;;;4.00;;
54388;SDS011;40975;50.390;8.640;2022-08-19T12:01:08;4.88;;;4.32;;
54388;SDS011;40975;50.390;8.640;2022-08-19T12:03:36;5.28;;;4.88;;
54388;SDS011;40975;50.390;8.640;2022-08-19T12:06:05;5.05;;;4.65;;
54388;SDS011;40975;50.390;8.640;2022-08-19T12:08:33;5.55;;;5.10;;
54388;SDS011;40975;50.390;8.640;2022-08-19T12:10:58;5.60;;;5.20;;
54388;SDS011;40975;50.390;8.640;2022-08-19T12:13:26;5.13;;;4.63;;
54388;SDS011;40975;50.390;8.640;2022-08-19T12:15:53;5.78;;;5.28;;
54388;SDS011;40975;50.390;8.640;2022-08-19T12:18:19;5.75;;;5.22;;
54388;SDS011;40975;50.390;8.640;2022-08-19T12:20:45;5.40;;;4.90;;
54388;SDS011;40975;50.390;8.640;2022-08-19T12:23:11;5.35;;;4.82;;
54388;SDS011;40975;50.390;8.640;2022-08-19T12:25:37;5.32;;;4.82;;
54388;SDS011;40975;50.390;8.640;2022-08-19T12:28:19;5.75;;;4.90;;
54388;SDS011;40975;50.390;8.640;2022-08-19T12:30:46;5.32;;;4.93;;
54388;SDS011;40975;50.390;8.640;2022-08-19T12:33:12;5.45;;;4.95;;
54388;SDS011;40975;50.390;8.640;2022-08-19T12:35:39;4.75;;;4.22;;
54388;SDS011;40975;50.390;8.640;2022-08-19T12:38:06;4.85;;;4.47;;
54388;SDS011;40975;50.390;8.640;2022-08-19T12:40:32;4.78;;;4.47;;
54388;SDS011;40975;50.390;8.640;2022-08-19T12:42:57;5.38;;;4.97;;
54388;SDS011;40975;50.390;8.640;2022-08-19T12:45:22;5.00;;;4.60;;
54388;SDS011;40975;50.390;8.640;2022-08-19T12:47:48;4.60;;;4.20;;
54388;SDS011;40975;50.390;8.640;2022-08-19T12:50:14;4.93;;;4.53;;
54388;SDS011;40975;50.390;8.640;2022-08-19T12:52:39;5.15;;;4.75;;
54388;SDS011;40975;50.390;8.640;2022-08-19T12:55:07;6.82;;;4.70;;
54388;SDS011;40975;50.390;8.640;2022-08-19T12:57:33;6.68;;;5.00;;
54388;SDS011;40975;50.390;8.640;2022-08-19T13:00:07;5.25;;;4.75;;
54388;SDS011;40975;50.390;8.640;2022-08-19T13:02:36;7.13;;;5.10;;
54388;SDS011;40975;50.390;8.640;2022-08-19T13:05:03;5.43;;;4.40;;
54388;SDS011;40975;50.390;8.640;2022-08-19T13:07:29;3.97;;;3.67;;
54388;SDS011;40975;50.390;8.640;2022-08-19T13:09:57;4.57;;;4.00;;
54388;SDS011;40975;50.390;8.640;2022-08-19T13:12:22;5.03;;;4.53;;
54388;SDS011;40975;50.390;8.640;2022-08-19T13:14:51;4.50;;;4.20;;
54388;SDS011;40975;50.390;8.640;2022-08-19T13:17:17;5.47;;;4.97;;
54388;SDS011;40975;50.390;8.640;2022-08-19T13:19:43;4.60;;;4.25;;
54388;SDS011;40975;50.390;8.640;2022-08-19T13:22:08;5.00;;;4.60;;
54388;SDS011;40975;50.390;8.640;2022-08-19T13:24:33;5.07;;;4.57;;
54388;SDS011;40975;50.390;8.640;2022-08-19T13:27:00;4.80;;;4.38;;
54388;SDS011;40975;50.390;8.640;2022-08-19T13:29:25;5.65;;;4.05;;
54388;SDS011;40975;50.390;8.640;2022-08-19T13:32:09;4.45;;;4.03;;
54388;SDS011;40975;50.390;8.640;2022-08-19T13:34:53;4.20;;;3.85;;
54388;SDS011;40975;50.390;8.640;2022-08-19T13:37:18;4.53;;;4.13;;
54388;SDS011;40975;50.390;8.640;2022-08-19T13:40:04;4.95;;;3.40;;
54388;SDS011;40975;50.390;8.640;2022-08-19T13:42:30;4.03;;;3.67;;
54388;SDS011;40975;50.390;8.640;2022-08-19T13:44:56;3.40;;;3.00;;
54388;SDS011;40975;50.390;8.640;2022-08-19T13:47:21;3.33;;;3.03;;
54388;SDS011;40975;50.390;8.640;2022-08-19T13:49:47;3.42;;;2.95;;
54388;SDS011;40975;50.390;8.640;2022-08-19T13:52:13;3.50;;;3.20;;
54388;SDS011;40975;50.390;8.640;2022-08-19T13:54:38;3.33;;;3.03;;
54388;SDS011;40975;50.390;8.640;2022-08-19T13:57:03;3.33;;;3.00;;
54388;SDS011;40975;50.390;8.640;2022-08-19T13:59:29;3.75;;;3.13;;
54388;SDS011;40975;50.390;8.640;2022-08-19T14:01:57;2.72;;;2.53;;
54388;SDS011;40975;50.390;8.640;2022-08-19T14:04:24;3.50;;;3.20;;
54388;SDS011;40975;50.390;8.640;2022-08-19T14:06:49;4.63;;;2.80;;
54388;SDS011;40975;50.390;8.640;2022-08-19T14:09:15;3.22;;;2.80;;
54388;SDS011;40975;50.390;8.640;2022-08-19T14:11:40;2.78;;;2.58;;
54388;SDS011;40975;50.390;8.640;2022-08-19T14:14:05;3.88;;;2.58;;
54388;SDS011;40975;50.390;8.640;2022-08-19T14:16:31;6.30;;;3.00;;
54388;SDS011;40975;50.390;8.640;2022-08-19T14:18:56;5.15;;;2.92;;
54388;SDS011;40975;50.390;8.640;2022-08-19T14:21:22;2.83;;;2.63;;
54388;SDS011;40975;50.390;8.640;2022-08-19T14:23:49;3.10;;;2.80;;
54388;SDS011;40975;50.390;8.640;2022-08-19T14:26:17;3.35;;;3.05;;
54388;SDS011;40975;50.390;8.640;2022-08-19T14:28:43;4.18;;;3.22;;
54388;SDS011;40975;50.390;8.640;2022-08-19T14:31:10;3.47;;;3.17;;
54388;SDS011;40975;50.390;8.640;2022-08-19T14:33:36;5.68;;;4.07;;
54388;SDS011;40975;50.390;8.640;2022-08-19T14:36:02;5.32;;;4.70;;
54388;SDS011;40975;50.390;8.640;2022-08-19T14:38:27;4.90;;;4.50;;
54388;SDS011;40975;50.390;8.640;2022-08-19T14:40:56;5.38;;;4.63;;
54388;SDS011;40975;50.390;8.640;2022-08-19T14:43:31;4.95;;;4.28;;
54388;SDS011;40975;50.390;8.640;2022-08-19T14:45:56;5.20;;;4.70;;
54388;SDS011;40975;50.390;8.640;2022-08-19T14:48:21;4.93;;;4.43;;
54388;SDS011;40975;50.390;8.640;2022-08-19T14:50:47;4.75;;;4.35;;
54388;SDS011;40975;50.390;8.640;2022-08-19T14:53:12;5.07;;;4.63;;
54388;SDS011;40975;50.390;8.640;2022-08-19T14:55:40;5.75;;;5.18;;
54388;SDS011;40975;50.390;8.640;2022-08-19T14:58:10;5.10;;;4.60;;